Time;durP1;ratioP1;P1;durP2;ratioP2;P2;SDS_P1;SDS_P2;PMS_P1;PMS_P2;Temp;Humidity;BMP_temperature;BMP_pressure;BME280_temperature;BME280_humidity;BME280_pressure;Samples;Min_cycle;Max_cycle;Signal;HPM_P1;HPM_P2
2021/05/02 00:00:43;;;;;;;;;;;;;;;19.50;68.91;100953.56;5109693;28;1239;-69
2021/05/02 00:03:28;;;;;;;;;;;;;;;19.49;68.80;100944.78;5109359;28;671;-68
2021/05/02 00:06:13;;;;;;;;;;;;;;;19.47;68.85;100951.97;5109146;28;1901;-68
2021/05/02 00:08:58;;;;;;;;;;;;;;;19.47;68.81;100959.88;5109268;28;948;-68
2021/05/02 00:11:43;;;;;;;;;;;;;;;19.46;68.84;100954.66;5109283;28;1299;-68
2021/05/02 00:14:28;;;;;;;;;;;;;;;19.47;68.78;100959.88;5109206;28;1247;-68
2021/05/02 00:17:13;;;;;;;;;;;;;;;19.46;68.83;100960.81;5109158;28;791;-68
2021/05/02 00:19:59;;;;;;;;;;;;;;;19.45;68.76;100959.13;5109379;28;1243;-67
2021/05/02 00:22:49;;;;;;;;;;;;;;;19.45;68.73;100953.84;5109463;28;631;-69
2021/05/02 00:25:35;;;;;;;;;;;;;;;19.43;68.71;100950.41;5109184;28;1910;-68
2021/05/02 00:28:20;;;;;;;;;;;;;;;19.43;68.86;100949.56;5109209;28;624;-68
2021/05/02 00:31:06;;;;;;;;;;;;;;;19.44;68.75;100946.00;5108759;28;1251;-69
2021/05/02 00:33:50;;;;;;;;;;;;;;;19.42;68.81;100947.88;5109270;28;1064;-68
2021/05/02 00:36:36;;;;;;;;;;;;;;;19.42;68.76;100953.16;5108811;28;1287;-68
2021/05/02 00:39:21;;;;;;;;;;;;;;;19.41;68.78;100952.31;5109536;28;1065;-69
2021/05/02 00:42:07;;;;;;;;;;;;;;;19.41;68.71;100951.44;5093420;28;687;-68
2021/05/02 00:45:05;;;;;;;;;;;;;;;19.40;68.69;100950.59;5109192;28;1267;-68
2021/05/02 00:47:58;;;;;;;;;;;;;;;19.38;68.74;100957.72;5109736;28;1367;-68
2021/05/02 00:50:50;;;;;;;;;;;;;;;19.40;68.70;100955.88;5129648;28;1338;-69
2021/05/02 00:53:44;;;;;;;;;;;;;;;19.40;68.71;100955.88;5128980;28;628;-69
2021/05/02 00:56:30;;;;;;;;;;;;;;;19.38;68.70;100957.72;5129468;28;1247;-70
2021/05/02 00:59:19;;;;;;;;;;;;;;;19.38;68.64;100954.22;5129440;28;1092;-69
2021/05/02 01:02:04;;;;;;;;;;;;;;;19.39;68.66;100964.75;5113945;28;651;-70
2021/05/02 01:04:51;;;;;;;;;;;;;;;19.38;68.70;100978.00;5129687;28;1299;-69
2021/05/02 01:07:36;;;;;;;;;;;;;;;19.36;68.63;100970.16;5128893;27;1921;-69
2021/05/02 01:10:21;;;;;;;;;;;;;;;19.36;68.65;100962.22;5117200;27;1235;-69
2021/05/02 01:13:06;;;;;;;;;;;;;;;19.35;68.70;100962.31;5133072;27;655;-69
2021/05/02 01:15:54;;;;;;;;;;;;;;;19.36;68.70;100966.69;5133369;27;1263;-69
2021/05/02 01:18:39;;;;;;;;;;;;;;;19.34;68.62;100955.34;5132835;27;930;-69
2021/05/02 01:21:28;;;;;;;;;;;;;;;19.35;68.69;100965.81;5132874;27;1274;-69
2021/05/02 01:24:14;;;;;;;;;;;;;;;19.35;68.61;100954.41;5132894;27;1063;-69
2021/05/02 01:26:59;;;;;;;;;;;;;;;19.34;68.67;100958.81;5132983;27;1909;-69
2021/05/02 01:29:44;;;;;;;;;;;;;;;19.34;68.62;100963.25;5132709;27;1205;-69
2021/05/02 01:32:30;;;;;;;;;;;;;;;19.35;68.52;100970.25;5132566;27;691;-69
2021/05/02 01:35:15;;;;;;;;;;;;;;;19.32;68.60;100963.34;5132506;27;1277;-69
2021/05/02 01:37:59;;;;;;;;;;;;;;;19.30;68.54;100964.38;5116958;27;678;-69
2021/05/02 01:40:44;;;;;;;;;;;;;;;19.31;68.50;100966.94;5132736;27;1310;-69
2021/05/02 01:43:29;;;;;;;;;;;;;;;19.32;68.39;100975.72;5132311;27;604;-69
2021/05/02 01:46:16;;;;;;;;;;;;;;;19.30;68.29;100982.88;5131808;27;1930;-69
2021/05/02 01:49:01;;;;;;;;;;;;;;;19.31;68.30;100979.28;5132241;27;1168;-69
2021/05/02 01:51:46;;;;;;;;;;;;;;;19.32;68.29;100978.34;5132143;27;1378;-69
2021/05/02 01:54:31;;;;;;;;;;;;;;;19.30;68.27;100983.69;5132202;27;1330;-69
2021/05/02 01:57:17;;;;;;;;;;;;;;;19.27;68.34;100975.94;5132100;27;627;-68
2021/05/02 02:00:06;;;;;;;;;;;;;;;19.27;68.19;100981.22;5116478;27;1240;-68
2021/05/02 02:02:52;;;;;;;;;;;;;;;19.27;68.24;100978.59;5132161;27;639;-69
2021/05/02 02:05:38;;;;;;;;;;;;;;;19.26;68.19;100974.25;5132358;27;1984;-69
2021/05/02 02:08:22;;;;;;;;;;;;;;;19.25;68.18;100983.13;5116302;27;640;-68
2021/05/02 02:11:07;;;;;;;;;;;;;;;19.27;68.15;100985.69;5131862;27;1244;-69
2021/05/02 02:13:52;;;;;;;;;;;;;;;19.26;68.03;100998.03;5132082;27;1079;-69
2021/05/02 02:16:41;;;;;;;;;;;;;;;19.27;68.04;100985.69;5131862;27;1299;-69
2021/05/02 02:19:26;;;;;;;;;;;;;;;19.25;68.03;100998.09;5131504;27;1243;-69
2021/05/02 02:22:11;;;;;;;;;;;;;;;19.24;67.91;100993.78;5131656;27;698;-69
2021/05/02 02:25:01;;;;;;;;;;;;;;;19.24;67.95;100991.97;5131694;27;1207;-69
2021/05/02 02:27:47;;;;;;;;;;;;;;;19.23;68.01;101003.47;5131735;27;1898;-69
2021/05/02 02:30:33;;;;;;;;;;;;;;;19.23;67.95;101016.69;5115935;27;1279;-69
2021/05/02 02:33:18;;;;;;;;;;;;;;;19.24;67.89;101010.44;5131501;27;643;-69
2021/05/02 02:36:03;;;;;;;;;;;;;;;19.22;67.88;101009.69;5131470;27;1298;-70
2021/05/02 02:38:48;;;;;;;;;;;;;;;19.23;67.85;101005.25;5131465;27;1163;-69
2021/05/02 02:41:36;;;;;;;;;;;;;;;19.22;67.89;101006.19;5115652;27;1291;-69
2021/05/02 02:44:21;;;;;;;;;;;;;;;19.22;67.98;101008.84;5131265;27;1011;-69
2021/05/02 02:47:08;;;;;;;;;;;;;;;19.22;67.85;101006.19;5131036;27;1906;-69
2021/05/02 02:49:56;;;;;;;;;;;;;;;19.20;67.95;100994.88;5131197;27;1263;-68
2021/05/02 02:52:42;;;;;;;;;;;;;;;19.21;67.94;100991.31;5130802;27;666;-70
2021/05/02 02:55:27;;;;;;;;;;;;;;;19.20;67.80;101001.00;5129971;27;1259;-69
2021/05/02 02:58:13;;;;;;;;;;;;;;;19.20;67.80;101002.78;5115281;27;706;-69
2021/05/02 03:00:59;;;;;;;;;;;;;;;19.20;67.69;100997.50;5130638;27;1260;-69
2021/05/02 03:03:44;;;;;;;;;;;;;;;19.20;67.78;101005.44;5130659;27;1091;-69
2021/05/02 03:06:29;;;;;;;;;;;;;;;19.19;67.66;101009.00;5130301;27;1976;-69
2021/05/02 03:09:15;;;;;;;;;;;;;;;19.19;67.66;101014.28;5130615;27;1139;-69
2021/05/02 03:12:00;;;;;;;;;;;;;;;19.18;67.63;101013.44;5130734;27;722;-69
2021/05/02 03:14:46;;;;;;;;;;;;;;;19.17;67.65;101010.88;5130689;27;1219;-69
2021/05/02 03:17:31;;;;;;;;;;;;;;;19.18;67.59;101012.59;5130565;27;719;-70
2021/05/02 03:20:17;;;;;;;;;;;;;;;19.16;67.59;101009.16;5130701;27;1278;-69
2021/05/02 03:23:06;;;;;;;;;;;;;;;19.17;67.56;101002.97;5130593;27;655;-70
2021/05/02 03:25:54;;;;;;;;;;;;;;;19.16;67.45;101012.66;5130762;27;1905;-69
2021/05/02 03:28:41;;;;;;;;;;;;;;;19.18;67.31;101007.31;5114671;27;935;-70
2021/05/02 03:31:31;;;;;;;;;;;;;;;19.14;67.31;101011.06;5129963;27;1211;-69
2021/05/02 03:34:17;;;;;;;;;;;;;;;19.15;67.34;101004.84;5130219;27;1036;-69
2021/05/02 03:37:04;;;;;;;;;;;;;;;19.15;67.40;101007.47;5130329;27;799;-69
2021/05/02 03:39:50;;;;;;;;;;;;;;;19.17;67.18;101008.25;5130429;27;1233;-69
2021/05/02 03:42:35;;;;;;;;;;;;;;;19.13;67.19;101002.28;5130176;27;664;-70
2021/05/02 03:45:19;;;;;;;;;;;;;;;19.10;67.32;100998.00;5130227;27;1250;-69
2021/05/02 03:48:04;;;;;;;;;;;;;;;19.12;67.42;101003.19;5130054;27;1963;-69
2021/05/02 03:50:49;;;;;;;;;;;;;;;19.10;67.19;101002.44;5139479;27;1262;-69
2021/05/02 03:53:34;;;;;;;;;;;;;;;19.11;67.33;101001.50;5114673;27;580;-70
2021/05/02 03:56:54;;;;;;;;;;;;;;;19.10;67.11;101002.44;5129872;27;1264;-69
2021/05/02 03:59:38;;;;;;;;;;;;;;;19.09;67.24;100993.66;5033588;28;1394;-69
2021/05/02 04:02:23;;;;;;;;;;;;;;;19.12;66.89;100997.09;5150829;27;655;-70
2021/05/02 04:05:08;;;;;;;;;;;;;;;19.10;67.02;101005.06;5150792;27;1380;-69
2021/05/02 04:07:53;;;;;;;;;;;;;;;19.08;67.05;101002.53;5150309;27;1961;-69
2021/05/02 04:10:38;;;;;;;;;;;;;;;19.09;66.96;101016.56;5150819;27;1259;-70
2021/05/02 04:13:22;;;;;;;;;;;;;;;19.07;66.90;101016.66;5134996;27;599;-70
2021/05/02 04:16:07;;;;;;;;;;;;;;;19.09;67.08;101009.50;5134222;27;1272;-70
2021/05/02 04:18:51;;;;;;;;;;;;;;;19.08;66.95;101018.38;5150486;27;1088;-70
2021/05/02 04:21:38;;;;;;;;;;;;;;;19.09;66.91;101029.75;5150846;27;1298;-69
2021/05/02 04:24:23;;;;;;;;;;;;;;;19.06;66.95;101038.72;5150513;27;1271;-70
2021/05/02 04:27:08;;;;;;;;;;;;;;;19.04;66.94;101034.44;5150609;27;1906;-70
2021/05/02 04:29:56;;;;;;;;;;;;;;;19.06;67.06;101040.50;5134903;27;1247;-69
2021/05/02 04:32:41;;;;;;;;;;;;;;;19.06;66.86;101041.34;5134963;27;647;-69
2021/05/02 04:35:25;;;;;;;;;;;;;;;19.06;66.85;101046.63;5150584;27;1239;-69
2021/05/02 04:38:10;;;;;;;;;;;;;;;19.04;66.86;101040.59;5150308;27;662;-69
2021/05/02 04:40:54;;;;;;;;;;;;;;;19.04;66.85;101048.50;5150672;27;1251;-69
2021/05/02 04:43:39;;;;;;;;;;;;;;;19.05;66.82;101044.94;5153306;27;907;-70
2021/05/02 04:46:25;;;;;;;;;;;;;;;19.04;66.81;101048.50;5137569;27;1914;-70
2021/05/02 04:49:10;;;;;;;;;;;;;;;19.04;66.76;101061.72;5154299;27;1193;-69
2021/05/02 04:51:55;;;;;;;;;;;;;;;19.01;66.65;101061.88;5154189;27;635;-69
2021/05/02 04:54:40;;;;;;;;;;;;;;;19.02;66.82;101070.66;5154297;27;1271;-69
2021/05/02 04:57:25;;;;;;;;;;;;;;;19.02;66.59;101066.22;5154402;27;603;-69
2021/05/02 05:00:10;;;;;;;;;;;;;;;18.99;66.55;101066.41;5154085;27;1278;-69
2021/05/02 05:02:56;;;;;;;;;;;;;;;19.03;66.59;101085.53;5154053;27;714;-69
2021/05/02 05:05:41;;;;;;;;;;;;;;;18.99;66.64;101087.53;5138139;27;1279;-69
2021/05/02 05:08:25;;;;;;;;;;;;;;;19.01;66.65;101085.63;5153970;27;623;-69
2021/05/02 05:11:10;;;;;;;;;;;;;;;19.01;66.52;101090.06;5153787;27;1294;-69
2021/05/02 05:13:55;;;;;;;;;;;;;;;19.00;66.54;101097.13;5153966;27;1052;-69
2021/05/02 05:16:40;;;;;;;;;;;;;;;18.98;66.56;101099.00;5153878;27;1271;-69
2021/05/02 05:19:25;;;;;;;;;;;;;;;18.97;66.55;101096.44;5153563;27;1164;-69
2021/05/02 05:22:09;;;;;;;;;;;;;;;18.98;66.54;101098.13;5153406;27;616;-69
2021/05/02 05:24:54;;;;;;;;;;;;;;;18.99;66.53;101102.50;5153448;27;1263;-69
2021/05/02 05:27:39;;;;;;;;;;;;;;;18.98;66.38;101100.78;5153389;27;1874;-69
2021/05/02 05:30:23;;;;;;;;;;;;;;;18.99;66.38;101103.34;5153420;27;1262;-69
2021/05/02 05:33:09;;;;;;;;;;;;;;;18.99;66.46;101113.06;5137186;27;628;-69
2021/05/02 05:35:54;;;;;;;;;;;;;;;18.94;66.46;101115.91;5152953;27;1314;-69
2021/05/02 05:38:39;;;;;;;;;;;;;;;18.96;66.32;101108.78;5152234;27;943;-69
2021/05/02 05:41:23;;;;;;;;;;;;;;;18.98;66.20;101117.47;5152288;27;1266;-70
2021/05/02 05:44:08;;;;;;;;;;;;;;;18.97;66.23;101113.13;5153158;27;1082;-69
2021/05/02 05:46:53;;;;;;;;;;;;;;;18.97;66.26;101118.41;5137421;27;1906;-69
2021/05/02 05:49:39;;;;;;;;;;;;;;;18.97;66.27;101121.03;5153274;27;1248;-68
2021/05/02 05:52:28;;;;;;;;;;;;;;;18.98;66.36;101116.63;5152930;27;635;-68
2021/05/02 05:55:14;;;;;;;;;;;;;;;18.94;66.20;101115.91;5152542;27;1243;-70
2021/05/02 05:57:58;;;;;;;;;;;;;;;18.94;66.19;101121.19;5152890;27;671;-69
2021/05/02 06:00:43;;;;;;;;;;;;;;;18.95;66.08;101128.19;5153247;27;1263;-70
2021/05/02 06:03:28;;;;;;;;;;;;;;;18.99;66.01;101124.47;5144534;27;1421;-71
2021/05/02 06:06:13;;;;;;;;;;;;;;;18.99;66.11;101129.75;5130801;27;1982;-69
2021/05/02 06:08:58;;;;;;;;;;;;;;;19.01;66.10;101134.94;5131791;27;947;-68
2021/05/02 06:11:45;;;;;;;;;;;;;;;19.02;66.09;101132.25;5131856;27;1366;-71
2021/05/02 06:14:30;;;;;;;;;;;;;;;19.02;66.28;101129.59;5131392;27;1345;-70
2021/05/02 06:17:14;;;;;;;;;;;;;;;19.03;66.04;101133.94;5131727;27;690;-71
2021/05/02 06:20:00;;;;;;;;;;;;;;;19.01;66.14;101133.16;5131986;27;1271;-68
2021/05/02 06:22:45;;;;;;;;;;;;;;;19.02;66.13;101145.44;5131804;27;703;-71
2021/05/02 06:25:30;;;;;;;;;;;;;;;19.00;66.18;101144.66;5116151;27;1236;-67
2021/05/02 06:28:15;;;;;;;;;;;;;;;19.00;66.04;101157.84;5131838;27;1952;-70
2021/05/02 06:30:59;;;;;;;;;;;;;;;19.00;66.09;101163.13;5120730;27;1549;-69
2021/05/02 06:33:44;;;;;;;;;;;;;;;19.00;66.02;101154.34;5150751;27;1073;-70
2021/05/02 06:36:29;;;;;;;;;;;;;;;19.02;65.86;101161.28;5151360;27;1367;-70
2021/05/02 06:39:14;;;;;;;;;;;;;;;19.02;65.93;101158.63;5151183;27;1058;-69
2021/05/02 06:41:59;;;;;;;;;;;;;;;19.02;65.88;101163.06;5135213;27;640;-69
2021/05/02 06:44:44;;;;;;;;;;;;;;;19.02;65.85;101163.91;5134964;27;1343;-70
2021/05/02 06:47:28;;;;;;;;;;;;;;;19.02;65.95;101168.34;5150826;27;1910;-69
2021/05/02 06:50:14;;;;;;;;;;;;;;;19.01;65.75;101172.75;5150706;27;1227;-69
2021/05/02 06:52:58;;;;;;;;;;;;;;;19.04;66.00;101171.75;5151149;27;686;-72
2021/05/02 06:55:43;;;;;;;;;;;;;;;19.05;65.69;101174.31;5135122;27;1231;-69
2021/05/02 06:58:30;;;;;;;;;;;;;;;19.00;65.83;101178.97;5135406;27;706;-68
2021/05/02 07:01:15;;;;;;;;;;;;;;;18.99;65.75;101177.28;5134090;27;1536;-69
2021/05/02 07:04:00;;;;;;;;;;;;;;;18.99;65.71;101174.63;5140292;27;1113;-68
2021/05/02 07:06:50;;;;;;;;;;;;;;;19.01;65.68;101174.53;5135027;27;1910;-69
2021/05/02 07:09:35;;;;;;;;;;;;;;;18.96;65.17;101181.84;5134633;27;1306;-68
2021/05/02 07:12:23;;;;;;;;;;;;;;;18.99;65.58;101195.75;5150916;27;658;-69
2021/05/02 07:15:07;;;;;;;;;;;;;;;19.01;65.69;101203.59;5151518;27;1243;-68
2021/05/02 07:17:52;;;;;;;;;;;;;;;19.05;65.66;101205.16;5151124;27;631;-67
2021/05/02 07:20:37;;;;;;;;;;;;;;;19.02;65.61;101208.81;5151256;27;1223;-67
2021/05/02 07:23:21;;;;;;;;;;;;;;;19.02;65.47;101208.81;5151044;27;690;-66
2021/05/02 07:26:06;;;;;;;;;;;;;;;19.02;65.41;101214.09;5150900;27;1910;-65
2021/05/02 07:28:52;;;;;;;;;;;;;;;19.14;66.20;101222.31;5150336;27;1128;-69
2021/05/02 07:31:36;;;;;;;;;;;;;;;19.10;65.77;101221.59;5150534;27;1366;-69
2021/05/02 07:34:23;;;;;;;;;;;;;;;19.08;65.63;101218.19;5134515;27;1206;-69
2021/05/02 07:37:09;;;;;;;;;;;;;;;19.07;65.57;101217.34;5150390;27;623;-69
2021/05/02 07:39:55;;;;;;;;;;;;;;;19.07;65.58;101225.25;5134852;27;1300;-71
2021/05/02 07:42:40;;;;;;;;;;;;;;;19.08;65.51;101224.34;5150856;27;679;-70
2021/05/02 07:45:25;;;;;;;;;;;;;;;19.07;65.37;101225.25;5134387;27;1255;-68
2021/05/02 07:48:10;;;;;;;;;;;;;;;19.08;65.56;101224.34;5148729;27;1905;-68
2021/05/02 07:50:55;;;;;;;;;;;;;;;19.08;65.47;101231.41;5149787;27;1272;-70
2021/05/02 07:53:40;;;;;;;;;;;;;;;19.06;65.28;101234.09;5133935;27;936;-71
2021/05/02 07:56:25;;;;;;;;;;;;;;;19.07;65.20;101233.19;5148998;27;1330;-71
2021/05/02 07:59:09;;;;;;;;;;;;;;;19.09;65.24;101236.59;5149061;27;1088;-71
2021/05/02 08:01:54;;;;;;;;;;;;;;;18.14;55.95;101237.78;5148875;27;713;-69
2021/05/02 08:04:39;;;;;;;;;;;;;;;18.23;58.84;101229.44;5146694;27;1364;-67
2021/05/02 08:07:24;;;;;;;;;;;;;;;18.61;59.82;101233.75;5126366;27;1910;-69
2021/05/02 08:10:10;;;;;;;;;;;;;;;18.80;61.08;101236.34;5133667;27;1267;-68
2021/05/02 08:12:55;;;;;;;;;;;;;;;18.90;61.96;101243.75;5150198;27;701;-70
2021/05/02 08:15:39;;;;;;;;;;;;;;;18.95;62.17;101241.72;5143245;27;1227;-68
2021/05/02 08:18:24;;;;;;;;;;;;;;;18.99;61.95;101240.66;5148354;27;655;-68
2021/05/02 08:21:10;;;;;;;;;;;;;;;19.06;62.84;101242.03;5126291;27;1299;-68
2021/05/02 08:23:55;;;;;;;;;;;;;;;19.10;62.28;101243.59;5140744;27;1714;-68
2021/05/02 08:26:40;;;;;;;;;;;;;;;19.10;62.66;101246.22;5136328;27;2005;-68
2021/05/02 08:29:25;;;;;;;;;;;;;;;19.11;62.69;101241.81;5145042;27;1215;-68
2021/05/02 08:32:09;;;;;;;;;;;;;;;19.10;62.94;101248.88;5130022;27;1026;-67
2021/05/02 08:34:55;;;;;;;;;;;;;;;19.25;62.94;101234.03;5135253;27;1314;-68
2021/05/02 08:37:39;;;;;;;;;;;;;;;19.26;63.09;101233.09;5126593;27;1053;-68
2021/05/02 08:40:24;;;;;;;;;;;;;;;19.30;63.25;101220.59;5141537;27;1224;-69
2021/05/02 08:43:10;;;;;;;;;;;;;;;19.27;63.06;101223.41;5123747;27;1199;-66
2021/05/02 08:45:55;;;;;;;;;;;;;;;19.25;63.07;101231.38;5126516;27;1468;-66
2021/05/02 08:48:39;;;;;;;;;;;;;;;19.23;63.33;101233.25;5119974;27;1125;-67
2021/05/02 08:51:24;;;;;;;;;;;;;;;19.25;63.30;101241.09;5122738;27;1259;-68
2021/05/02 08:54:09;;;;;;;;;;;;;;;19.25;63.42;101246.38;5122057;27;1128;-68
2021/05/02 08:56:54;;;;;;;;;;;;;;;19.26;63.55;101248.94;5138460;27;1038;-70
2021/05/02 08:59:39;;;;;;;;;;;;;;;19.26;63.59;101237.53;5143069;27;1227;-68
2021/05/02 09:02:25;;;;;;;;;;;;;;;19.27;63.92;101231.31;5141307;27;1112;-68
2021/05/02 09:05:10;;;;;;;;;;;;;;;19.25;63.63;101226.09;5134413;27;1337;-68
2021/05/02 09:07:55;;;;;;;;;;;;;;;19.25;63.75;101226.09;5130194;27;1902;-68
2021/05/02 09:10:40;;;;;;;;;;;;;;;19.30;63.90;101229.34;5131592;27;1260;-68
2021/05/02 09:13:27;;;;;;;;;;;;;;;19.35;63.85;101239.69;5123158;27;1269;-68
2021/05/02 09:16:12;;;;;;;;;;;;;;;19.33;63.60;101252.13;5140422;27;1384;-69
2021/05/02 09:18:58;;;;;;;;;;;;;;;19.32;63.74;101253.06;5138437;27;1116;-69
2021/05/02 09:21:43;;;;;;;;;;;;;;;19.33;64.29;101260.88;5129484;27;1389;-66
2021/05/02 09:24:33;;;;;;;;;;;;;;;19.37;63.95;101262.44;5134258;27;1247;-68
2021/05/02 09:27:18;;;;;;;;;;;;;;;19.37;63.75;101267.72;5125909;27;2401;-68
2021/05/02 09:30:19;;;;;;;;;;;;;;;19.35;63.83;101277.53;5130438;27;1413;-68
2021/05/02 09:33:07;;;;;;;;;;;;;;;19.36;63.82;101276.59;5134091;27;1180;-71
2021/05/02 09:35:53;;;;;;;;;;;;;;;19.37;63.89;101282.72;5145210;27;1371;-68
2021/05/02 09:38:38;;;;;;;;;;;;;;;19.39;64.07;101288.81;5133843;27;1048;-68
2021/05/02 09:41:23;;;;;;;;;;;;;;;19.40;63.91;101303.72;5130502;27;1382;-68
2021/05/02 09:44:08;;;;;;;;;;;;;;;19.38;64.30;101298.50;5135267;27;1122;-68
2021/05/02 09:46:52;;;;;;;;;;;;;;;19.42;63.93;101296.59;5135051;27;1909;-68
2021/05/02 09:49:37;;;;;;;;;;;;;;;19.41;63.81;101306.31;5145654;27;1258;-68
2021/05/02 09:52:39;;;;;;;;;;;;;;;19.40;64.03;101309.88;5136374;27;1125;-68
2021/05/02 09:55:27;;;;;;;;;;;;;;;19.39;63.75;101302.00;5135626;27;1222;-69
2021/05/02 09:58:15;;;;;;;;;;;;;;;19.38;63.96;101310.84;5129795;27;1379;-70
2021/05/02 10:01:01;;;;;;;;;;;;;;;19.39;63.95;101313.47;5130178;27;1310;-68
2021/05/02 10:03:51;;;;;;;;;;;;;;;19.43;64.23;101306.22;5122873;27;1252;-69
2021/05/02 10:06:35;;;;;;;;;;;;;;;19.43;64.22;101306.22;5135692;27;1901;-68
2021/05/02 10:09:20;;;;;;;;;;;;;;;19.41;64.13;101311.59;5135623;27;1032;-68
2021/05/02 10:12:05;;;;;;;;;;;;;;;19.40;64.09;101314.31;5132857;27;1302;-69
2021/05/02 10:14:50;;;;;;;;;;;;;;;19.40;64.06;101324.88;5138008;27;1282;-68
2021/05/02 10:17:35;;;;;;;;;;;;;;;19.39;64.06;101317.88;5130199;27;1152;-70
2021/05/02 10:20:20;;;;;;;;;;;;;;;19.37;64.12;101317.94;5130029;27;1367;-69
2021/05/02 10:23:07;;;;;;;;;;;;;;;19.45;65.11;101321.09;5143006;27;1144;-67
2021/05/02 10:25:55;;;;;;;;;;;;;;;19.48;64.57;101318.28;5131489;27;1228;-69
2021/05/02 10:28:41;;;;;;;;;;;;;;;19.50;65.54;101326.97;5138391;27;1955;-72
2021/05/02 10:31:29;;;;;;;;;;;;;;;19.56;65.85;101339.03;5146986;27;1285;-67
2021/05/02 10:34:31;;;;;;;;;;;;;;;19.56;66.33;101346.94;5134907;27;1208;-67
2021/05/02 10:37:25;;;;;;;;;;;;;;;19.46;65.89;101338.63;5142106;27;1191;-68
2021/05/02 10:40:31;;;;;;;;;;;;;;;19.41;65.62;101337.16;5128228;27;1283;-68
2021/05/02 10:43:27;;;;;;;;;;;;;;;19.41;65.70;101339.78;5122377;27;1209;-66
2021/05/02 10:46:31;;;;;;;;;;;;;;;19.40;65.96;101346.88;5132105;27;1672;-67
2021/05/02 10:49:19;;;;;;;;;;;;;;;19.39;65.79;101349.56;5133636;27;1080;-68
2021/05/02 10:52:23;;;;;;;;;;;;;;;19.38;65.87;101345.19;5129069;27;1057;-68
2021/05/02 10:55:13;;;;;;;;;;;;;;;19.37;66.01;101335.56;5136199;27;1236;-67
2021/05/02 10:58:04;;;;;;;;;;;;;;;19.36;66.18;101339.16;5115864;27;1085;-67
2021/05/02 11:01:09;;;;;;;;;;;;;;;19.34;66.02;101341.00;5148336;27;1359;-67
2021/05/02 11:03:54;;;;;;;;;;;;;;;19.33;65.98;101334.84;5132332;27;1187;-67
2021/05/02 11:06:38;;;;;;;;;;;;;;;19.33;66.07;101336.66;5139967;27;1967;-67
2021/05/02 11:09:25;;;;;;;;;;;;;;;19.33;65.84;101339.31;5133937;27;1321;-65
2021/05/02 11:12:24;;;;;;;;;;;;;;;19.32;66.22;101340.22;5128445;27;978;-67
2021/05/02 11:15:31;;;;;;;;;;;;;;;19.32;66.03;101341.09;5136001;27;1239;-64
2021/05/02 11:18:22;;;;;;;;;;;;;;;19.31;65.99;101335.88;5118706;27;975;-68
2021/05/02 11:21:08;;;;;;;;;;;;;;;19.30;65.88;101345.56;5147888;27;1343;-68
2021/05/02 11:23:54;;;;;;;;;;;;;;;19.30;65.94;101350.03;5132266;27;1207;-67
2021/05/02 11:26:50;;;;;;;;;;;;;;;19.28;65.75;101341.31;5139132;27;1993;-68
2021/05/02 11:32:29;;;;;;;;;;;;;;;19.27;65.68;101335.16;5131214;27;1263;-68
2021/05/02 11:35:20;;;;;;;;;;;;;;;19.31;66.22;101335.88;5140236;27;1392;-69
2021/05/02 11:38:05;;;;;;;;;;;;;;;19.40;65.69;101343.38;5135824;27;1058;-67
2021/05/02 11:40:57;;;;;;;;;;;;;;;19.45;65.58;101341.38;5130674;27;1390;-70
2021/05/02 11:43:42;;;;;;;;;;;;;;;19.43;65.64;101349.34;5129065;27;1087;-67
2021/05/02 11:46:28;;;;;;;;;;;;;;;19.40;65.20;101360.06;5131881;27;1501;-66
2021/05/02 11:49:13;;;;;;;;;;;;;;;19.36;65.17;101349.72;5128252;27;1195;-69
2021/05/02 11:51:57;;;;;;;;;;;;;;;19.37;65.02;101349.63;5142917;27;1140;-66
2021/05/02 11:54:46;;;;;;;;;;;;;;;19.48;64.67;101350.00;5139707;27;1711;-71
2021/05/02 11:57:40;;;;;;;;;;;;;;;19.44;65.03;101348.44;5127767;27;1014;-69
2021/05/02 12:00:35;;;;;;;;;;;;;;;19.47;64.85;101353.56;5134956;27;1421;-73
2021/05/02 12:03:34;;;;;;;;;;;;;;;19.43;64.75;101348.50;5130087;27;1018;-72
2021/05/02 12:06:20;;;;;;;;;;;;;;;19.40;64.64;101349.50;5136444;27;1362;-69
2021/05/02 12:09:13;;;;;;;;;;;;;;;19.40;64.81;101346.00;5130239;27;1141;-74
2021/05/02 12:12:01;;;;;;;;;;;;;;;19.40;64.55;101354.78;5123379;27;1291;-71
2021/05/02 12:14:46;;;;;;;;;;;;;;;19.42;64.42;101350.31;5138001;27;1287;-73
2021/05/02 12:17:30;;;;;;;;;;;;;;;19.39;64.34;101361.03;5130683;27;1163;-73
2021/05/02 12:20:20;;;;;;;;;;;;;;;19.58;64.39;101353.84;5132257;27;1255;-72
2021/05/02 12:23:05;;;;;;;;;;;;;;;19.61;64.46;101361.63;5128735;27;1101;-73
2021/05/02 12:25:49;;;;;;;;;;;;;;;19.54;64.02;101360.25;5137850;27;1243;-70
2021/05/02 12:28:35;;;;;;;;;;;;;;;19.53;64.21;101357.69;5134870;27;1909;-69
2021/05/02 12:31:20;;;;;;;;;;;;;;;19.48;64.12;101365.00;5132597;27;1247;-68
2021/05/02 12:34:08;;;;;;;;;;;;;;;19.45;63.97;101360.72;5116076;27;1211;-68
2021/05/02 12:36:54;;;;;;;;;;;;;;;19.44;63.96;101350.22;5135762;27;1162;-67
2021/05/02 12:39:39;;;;;;;;;;;;;;;19.42;63.89;101349.44;5137097;27;1302;-67
2021/05/02 12:42:35;;;;;;;;;;;;;;;19.42;64.11;101352.09;5135202;27;1169;-66
2021/05/02 12:45:19;;;;;;;;;;;;;;;19.41;64.01;101353.88;5136460;27;1299;-64
2021/05/02 12:48:05;;;;;;;;;;;;;;;19.44;64.07;101358.13;5138522;27;1937;-68
2021/05/02 12:50:51;;;;;;;;;;;;;;;19.43;63.98;101365.19;5120920;27;1255;-67
2021/05/02 12:53:41;;;;;;;;;;;;;;;19.43;64.19;101364.34;5121029;27;1248;-68
2021/05/02 12:56:26;;;;;;;;;;;;;;;19.43;64.01;101362.56;5122706;27;1362;-67
2021/05/02 12:59:33;;;;;;;;;;;;;;;19.42;64.05;101357.38;5135170;27;1193;-66
2021/05/02 13:02:26;;;;;;;;;;;;;;;19.48;64.55;101355.28;5138984;27;1156;-69
2021/05/02 13:05:13;;;;;;;;;;;;;;;19.47;64.97;101350.06;5124980;27;1304;-71
2021/05/02 13:08:10;;;;;;;;;;;;;;;19.46;65.12;101336.00;5125171;27;1921;-69
2021/05/02 13:10:55;;;;;;;;;;;;;;;19.49;65.48;101343.75;5142928;27;1295;-69
2021/05/02 13:13:41;;;;;;;;;;;;;;;19.50;65.33;101337.56;5142954;27;1145;-70
2021/05/02 13:16:39;;;;;;;;;;;;;;;19.51;65.34;101338.41;5141148;27;1421;-65
2021/05/02 13:19:27;;;;;;;;;;;;;;;19.50;65.20;101326.13;5140914;27;1274;-67
2021/05/02 13:22:13;;;;;;;;;;;;;;;19.48;64.80;101325.34;5142211;27;1196;-68
2021/05/02 13:25:04;;;;;;;;;;;;;;;19.49;64.81;101334.97;5143271;27;1366;-66
2021/05/02 13:27:50;;;;;;;;;;;;;;;19.47;64.63;101326.28;5127079;27;1898;-67
2021/05/02 13:30:36;;;;;;;;;;;;;;;19.47;64.59;101327.13;5142739;27;1350;-66
2021/05/02 13:33:29;;;;;;;;;;;;;;;19.45;64.35;101329.00;5142997;27;1205;-67
2021/05/02 13:36:14;;;;;;;;;;;;;;;19.49;65.24;101330.53;5142111;27;1203;-64
2021/05/02 13:38:59;;;;;;;;;;;;;;;19.50;65.68;101332.25;5142669;27;1165;-63
2021/05/02 13:41:44;;;;;;;;;;;;;;;19.48;65.25;101325.34;5140536;27;1416;-64
2021/05/02 13:44:29;;;;;;;;;;;;;;;19.59;64.98;101318.59;5141267;27;1304;-67
2021/05/02 13:47:14;;;;;;;;;;;;;;;19.53;64.93;101328.59;5139361;27;1973;-62
2021/05/02 13:50:00;;;;;;;;;;;;;;;19.48;64.88;101323.56;5142426;27;1394;-70
2021/05/02 13:52:45;;;;;;;;;;;;;;;19.43;64.24;101315.00;5140341;27;1137;-70
2021/05/02 13:55:30;;;;;;;;;;;;;;;19.43;63.97;101308.84;5126703;27;1322;-69
2021/05/02 13:58:15;;;;;;;;;;;;;;;19.42;63.92;101307.19;5142171;27;1054;-71
2021/05/02 14:01:13;;;;;;;;;;;;;;;19.42;63.99;101304.53;5141070;27;1244;-67
2021/05/02 14:04:00;;;;;;;;;;;;;;;19.41;64.03;101305.44;5141943;27;1227;-66
2021/05/02 14:06:44;;;;;;;;;;;;;;;19.41;63.76;101300.16;5126689;27;1917;-69
2021/05/02 14:09:29;;;;;;;;;;;;;;;19.41;63.79;101295.75;5140729;27;1374;-68
2021/05/02 14:12:14;;;;;;;;;;;;;;;19.41;63.71;101295.75;5126504;27;1101;-70
2021/05/02 14:15:00;;;;;;;;;;;;;;;19.46;64.65;101298.13;5121691;27;1608;-72
2021/05/02 14:17:44;;;;;;;;;;;;;;;19.47;64.90;101289.28;5139892;27;1379;-69
2021/05/02 14:20:29;;;;;;;;;;;;;;;19.54;65.31;101290.69;5139822;27;1354;-72
2021/05/02 14:23:14;;;;;;;;;;;;;;;19.51;65.62;101286.44;5138447;27;1049;-69
2021/05/02 14:25:59;;;;;;;;;;;;;;;19.55;65.49;101295.88;5122808;27;1315;-67
2021/05/02 14:28:44;;;;;;;;;;;;;;;19.56;65.28;101304.66;5118038;27;1968;-64
2021/05/02 14:31:29;;;;;;;;;;;;;;;19.51;65.76;101301.41;5133937;27;1423;-66